sensor_id;sensor_type;location;lat;lon;timestamp;P1;durP1;ratioP1;P2;durP2;ratioP2
58240;SDS011;45058;55.772;38.224;2023-06-10T00:01:58;7.47;;;3.20;;
58240;SDS011;45058;55.772;38.224;2023-06-10T00:04:26;4.97;;;3.28;;
58240;SDS011;45058;55.772;38.224;2023-06-10T00:06:53;9.73;;;3.95;;
58240;SDS011;45058;55.772;38.224;2023-06-10T00:09:19;4.30;;;3.08;;
58240;SDS011;45058;55.772;38.224;2023-06-10T00:11:48;11.82;;;3.35;;
58240;SDS011;45058;55.772;38.224;2023-06-10T00:14:15;12.90;;;3.70;;
58240;SDS011;45058;55.772;38.224;2023-06-10T00:16:41;5.78;;;3.05;;
58240;SDS011;45058;55.772;38.224;2023-06-10T00:19:10;8.02;;;3.40;;
58240;SDS011;45058;55.772;38.224;2023-06-10T00:21:39;4.82;;;2.95;;
58240;SDS011;45058;55.772;38.224;2023-06-10T00:24:06;10.50;;;3.58;;
58240;SDS011;45058;55.772;38.224;2023-06-10T00:26:38;6.88;;;3.80;;
58240;SDS011;45058;55.772;38.224;2023-06-10T00:29:06;6.38;;;3.42;;
58240;SDS011;45058;55.772;38.224;2023-06-10T00:31:36;6.63;;;3.20;;
58240;SDS011;45058;55.772;38.224;2023-06-10T00:34:06;5.82;;;2.97;;
58240;SDS011;45058;55.772;38.224;2023-06-10T00:36:33;8.30;;;3.40;;
58240;SDS011;45058;55.772;38.224;2023-06-10T00:38:59;9.07;;;3.10;;
58240;SDS011;45058;55.772;38.224;2023-06-10T00:41:25;7.32;;;3.25;;
58240;SDS011;45058;55.772;38.224;2023-06-10T00:43:54;13.68;;;3.72;;
58240;SDS011;45058;55.772;38.224;2023-06-10T00:46:23;8.48;;;4.13;;
58240;SDS011;45058;55.772;38.224;2023-06-10T00:48:55;6.33;;;3.67;;
58240;SDS011;45058;55.772;38.224;2023-06-10T00:51:22;7.38;;;3.85;;
58240;SDS011;45058;55.772;38.224;2023-06-10T00:53:48;10.40;;;4.40;;
58240;SDS011;45058;55.772;38.224;2023-06-10T00:56:15;9.15;;;4.20;;
58240;SDS011;45058;55.772;38.224;2023-06-10T00:58:41;8.18;;;4.50;;
58240;SDS011;45058;55.772;38.224;2023-06-10T01:01:08;6.43;;;3.80;;
58240;SDS011;45058;55.772;38.224;2023-06-10T01:03:37;6.22;;;3.83;;
58240;SDS011;45058;55.772;38.224;2023-06-10T01:06:09;8.70;;;3.50;;
58240;SDS011;45058;55.772;38.224;2023-06-10T01:12:28;4.93;;;3.33;;
58240;SDS011;45058;55.772;38.224;2023-06-10T01:14:58;5.88;;;3.70;;
58240;SDS011;45058;55.772;38.224;2023-06-10T01:17:25;7.32;;;3.80;;
58240;SDS011;45058;55.772;38.224;2023-06-10T01:19:56;5.78;;;3.95;;
58240;SDS011;45058;55.772;38.224;2023-06-10T01:22:23;9.93;;;3.85;;
58240;SDS011;45058;55.772;38.224;2023-06-10T01:24:52;4.93;;;3.45;;
58240;SDS011;45058;55.772;38.224;2023-06-10T01:27:19;6.88;;;3.50;;
58240;SDS011;45058;55.772;38.224;2023-06-10T01:29:50;5.78;;;3.55;;
58240;SDS011;45058;55.772;38.224;2023-06-10T01:32:23;7.25;;;3.42;;
58240;SDS011;45058;55.772;38.224;2023-06-10T01:34:53;11.07;;;3.50;;
58240;SDS011;45058;55.772;38.224;2023-06-10T01:37:20;10.45;;;3.38;;
58240;SDS011;45058;55.772;38.224;2023-06-10T01:39:49;6.95;;;3.50;;
58240;SDS011;45058;55.772;38.224;2023-06-10T01:42:16;8.63;;;3.75;;
58240;SDS011;45058;55.772;38.224;2023-06-10T01:44:43;4.25;;;3.30;;
58240;SDS011;45058;55.772;38.224;2023-06-10T01:47:09;6.43;;;3.10;;
58240;SDS011;45058;55.772;38.224;2023-06-10T01:49:35;4.95;;;2.75;;
58240;SDS011;45058;55.772;38.224;2023-06-10T01:52:01;6.65;;;3.15;;
58240;SDS011;45058;55.772;38.224;2023-06-10T01:54:28;13.15;;;3.08;;
58240;SDS011;45058;55.772;38.224;2023-06-10T01:56:54;5.20;;;2.97;;
58240;SDS011;45058;55.772;38.224;2023-06-10T01:59:20;5.93;;;3.15;;
58240;SDS011;45058;55.772;38.224;2023-06-10T02:01:47;6.47;;;2.72;;
58240;SDS011;45058;55.772;38.224;2023-06-10T02:04:13;5.40;;;2.80;;
58240;SDS011;45058;55.772;38.224;2023-06-10T02:06:39;4.03;;;2.40;;
58240;SDS011;45058;55.772;38.224;2023-06-10T02:09:06;7.40;;;2.90;;
58240;SDS011;45058;55.772;38.224;2023-06-10T02:11:32;5.43;;;2.63;;
58240;SDS011;45058;55.772;38.224;2023-06-10T02:13:58;4.00;;;2.72;;
58240;SDS011;45058;55.772;38.224;2023-06-10T02:16:25;6.43;;;2.75;;
58240;SDS011;45058;55.772;38.224;2023-06-10T02:18:52;7.75;;;2.53;;
58240;SDS011;45058;55.772;38.224;2023-06-10T02:21:18;6.13;;;3.00;;
58240;SDS011;45058;55.772;38.224;2023-06-10T02:23:44;4.93;;;2.78;;
58240;SDS011;45058;55.772;38.224;2023-06-10T02:26:10;10.63;;;3.08;;
58240;SDS011;45058;55.772;38.224;2023-06-10T02:28:36;10.15;;;2.40;;
58240;SDS011;45058;55.772;38.224;2023-06-10T02:31:03;7.05;;;2.65;;
58240;SDS011;45058;55.772;38.224;2023-06-10T02:33:29;9.13;;;2.60;;
58240;SDS011;45058;55.772;38.224;2023-06-10T02:35:55;6.57;;;2.70;;
58240;SDS011;45058;55.772;38.224;2023-06-10T02:38:23;7.82;;;2.65;;
58240;SDS011;45058;55.772;38.224;2023-06-10T02:40:49;4.47;;;2.63;;
58240;SDS011;45058;55.772;38.224;2023-06-10T02:43:16;5.95;;;2.25;;
58240;SDS011;45058;55.772;38.224;2023-06-10T02:45:44;5.32;;;2.83;;
58240;SDS011;45058;55.772;38.224;2023-06-10T02:48:11;6.70;;;2.45;;
58240;SDS011;45058;55.772;38.224;2023-06-10T02:50:37;6.45;;;2.60;;
58240;SDS011;45058;55.772;38.224;2023-06-10T02:53:20;8.88;;;2.58;;
58240;SDS011;45058;55.772;38.224;2023-06-10T02:55:53;9.93;;;2.80;;
58240;SDS011;45058;55.772;38.224;2023-06-10T02:58:20;5.38;;;2.20;;
58240;SDS011;45058;55.772;38.224;2023-06-10T03:00:46;4.38;;;2.50;;
58240;SDS011;45058;55.772;38.224;2023-06-10T03:03:14;5.75;;;2.40;;
58240;SDS011;45058;55.772;38.224;2023-06-10T03:06:03;7.20;;;2.25;;
58240;SDS011;45058;55.772;38.224;2023-06-10T03:08:30;7.57;;;2.67;;
58240;SDS011;45058;55.772;38.224;2023-06-10T03:10:58;5.95;;;2.53;;
58240;SDS011;45058;55.772;38.224;2023-06-10T03:13:24;7.45;;;2.58;;
58240;SDS011;45058;55.772;38.224;2023-06-10T03:15:50;7.72;;;2.10;;
58240;SDS011;45058;55.772;38.224;2023-06-10T03:18:19;7.55;;;2.30;;
58240;SDS011;45058;55.772;38.224;2023-06-10T03:20:46;8.20;;;2.20;;
58240;SDS011;45058;55.772;38.224;2023-06-10T03:23:13;8.10;;;2.33;;
58240;SDS011;45058;55.772;38.224;2023-06-10T03:25:42;4.60;;;1.70;;
58240;SDS011;45058;55.772;38.224;2023-06-10T03:28:12;4.57;;;1.83;;
58240;SDS011;45058;55.772;38.224;2023-06-10T03:30:38;3.30;;;1.83;;
58240;SDS011;45058;55.772;38.224;2023-06-10T03:33:04;3.15;;;1.50;;
58240;SDS011;45058;55.772;38.224;2023-06-10T03:35:31;2.85;;;1.50;;
58240;SDS011;45058;55.772;38.224;2023-06-10T03:37:59;4.70;;;1.50;;
58240;SDS011;45058;55.772;38.224;2023-06-10T03:40:25;6.45;;;1.63;;
58240;SDS011;45058;55.772;38.224;2023-06-10T03:42:51;5.20;;;1.83;;
58240;SDS011;45058;55.772;38.224;2023-06-10T03:45:18;3.92;;;1.42;;
58240;SDS011;45058;55.772;38.224;2023-06-10T03:47:45;2.72;;;1.40;;
58240;SDS011;45058;55.772;38.224;2023-06-10T03:50:16;4.07;;;1.38;;
58240;SDS011;45058;55.772;38.224;2023-06-10T03:52:45;3.60;;;1.50;;
58240;SDS011;45058;55.772;38.224;2023-06-10T03:55:13;6.22;;;1.42;;
58240;SDS011;45058;55.772;38.224;2023-06-10T03:57:43;1.60;;;1.10;;
58240;SDS011;45058;55.772;38.224;2023-06-10T04:00:10;10.77;;;1.90;;
58240;SDS011;45058;55.772;38.224;2023-06-10T04:02:44;1.35;;;1.15;;
58240;SDS011;45058;55.772;38.224;2023-06-10T04:05:30;7.20;;;1.38;;
58240;SDS011;45058;55.772;38.224;2023-06-10T04:07:57;3.78;;;1.15;;
58240;SDS011;45058;55.772;38.224;2023-06-10T04:10:23;3.00;;;1.65;;
58240;SDS011;45058;55.772;38.224;2023-06-10T04:12:49;2.22;;;1.33;;
58240;SDS011;45058;55.772;38.224;2023-06-10T04:15:16;4.82;;;1.38;;
58240;SDS011;45058;55.772;38.224;2023-06-10T04:17:43;2.35;;;1.20;;
58240;SDS011;45058;55.772;38.224;2023-06-10T04:20:09;8.02;;;1.63;;
58240;SDS011;45058;55.772;38.224;2023-06-10T04:22:38;4.10;;;1.35;;
58240;SDS011;45058;55.772;38.224;2023-06-10T04:25:04;3.83;;;1.13;;
58240;SDS011;45058;55.772;38.224;2023-06-10T04:27:31;2.92;;;1.17;;
58240;SDS011;45058;55.772;38.224;2023-06-10T04:29:57;4.07;;;1.60;;
58240;SDS011;45058;55.772;38.224;2023-06-10T04:32:23;2.85;;;1.27;;
58240;SDS011;45058;55.772;38.224;2023-06-10T04:34:50;2.53;;;1.50;;
58240;SDS011;45058;55.772;38.224;2023-06-10T04:37:18;7.50;;;1.48;;
58240;SDS011;45058;55.772;38.224;2023-06-10T04:39:44;3.50;;;1.40;;
58240;SDS011;45058;55.772;38.224;2023-06-10T04:42:10;4.45;;;1.30;;
58240;SDS011;45058;55.772;38.224;2023-06-10T04:44:38;6.75;;;1.52;;
58240;SDS011;45058;55.772;38.224;2023-06-10T04:47:04;1.52;;;1.10;;
58240;SDS011;45058;55.772;38.224;2023-06-10T04:49:33;2.17;;;1.15;;
58240;SDS011;45058;55.772;38.224;2023-06-10T04:51:59;1.92;;;1.08;;
58240;SDS011;45058;55.772;38.224;2023-06-10T04:54:26;3.00;;;1.20;;
58240;SDS011;45058;55.772;38.224;2023-06-10T04:56:52;2.50;;;1.30;;
58240;SDS011;45058;55.772;38.224;2023-06-10T04:59:20;4.28;;;1.00;;
58240;SDS011;45058;55.772;38.224;2023-06-10T05:01:46;3.40;;;1.52;;
58240;SDS011;45058;55.772;38.224;2023-06-10T05:04:12;7.15;;;1.40;;
58240;SDS011;45058;55.772;38.224;2023-06-10T05:06:38;4.63;;;1.10;;
58240;SDS011;45058;55.772;38.224;2023-06-10T05:09:04;2.47;;;1.20;;
58240;SDS011;45058;55.772;38.224;2023-06-10T05:11:30;2.15;;;1.20;;
58240;SDS011;45058;55.772;38.224;2023-06-10T05:13:57;2.45;;;1.20;;
58240;SDS011;45058;55.772;38.224;2023-06-10T05:16:23;4.97;;;1.10;;
58240;SDS011;45058;55.772;38.224;2023-06-10T08:23:28;2.00;;;0.40;;
58240;SDS011;45058;55.772;38.224;2023-06-10T08:25:54;1.00;;;0.45;;
58240;SDS011;45058;55.772;38.224;2023-06-10T08:28:20;3.50;;;0.70;;
58240;SDS011;45058;55.772;38.224;2023-06-10T08:30:48;1.52;;;0.47;;
58240;SDS011;45058;55.772;38.224;2023-06-10T08:33:15;3.60;;;0.60;;
58240;SDS011;45058;55.772;38.224;2023-06-10T08:35:41;2.55;;;0.45;;
58240;SDS011;45058;55.772;38.224;2023-06-10T08:38:10;10.18;;;0.50;;
58240;SDS011;45058;55.772;38.224;2023-06-10T08:40:38;8.65;;;1.08;;
58240;SDS011;45058;55.772;38.224;2023-06-10T08:43:06;7.05;;;0.50;;
58240;SDS011;45058;55.772;38.224;2023-06-10T08:45:34;2.75;;;0.50;;
58240;SDS011;45058;55.772;38.224;2023-06-10T08:48:02;7.53;;;0.77;;
58240;SDS011;45058;55.772;38.224;2023-06-10T08:50:36;10.25;;;0.60;;
58240;SDS011;45058;55.772;38.224;2023-06-10T08:53:06;34.58;;;1.77;;
58240;SDS011;45058;55.772;38.224;2023-06-10T08:55:37;3.33;;;0.70;;
58240;SDS011;45058;55.772;38.224;2023-06-10T08:58:06;2.95;;;0.40;;
58240;SDS011;45058;55.772;38.224;2023-06-10T09:00:32;3.28;;;0.60;;
58240;SDS011;45058;55.772;38.224;2023-06-10T09:03:01;2.92;;;0.32;;
58240;SDS011;45058;55.772;38.224;2023-06-10T09:05:29;1.85;;;0.80;;
58240;SDS011;45058;55.772;38.224;2023-06-10T09:07:57;7.80;;;0.80;;
58240;SDS011;45058;55.772;38.224;2023-06-10T09:10:23;2.85;;;0.60;;
58240;SDS011;45058;55.772;38.224;2023-06-10T09:12:51;3.28;;;0.65;;
58240;SDS011;45058;55.772;38.224;2023-06-10T09:15:17;0.77;;;0.40;;
58240;SDS011;45058;55.772;38.224;2023-06-10T09:17:44;4.30;;;0.63;;
58240;SDS011;45058;55.772;38.224;2023-06-10T09:20:11;4.55;;;0.50;;
58240;SDS011;45058;55.772;38.224;2023-06-10T09:22:37;7.10;;;0.50;;
58240;SDS011;45058;55.772;38.224;2023-06-10T09:27:33;1.85;;;0.38;;
58240;SDS011;45058;55.772;38.224;2023-06-10T09:30:28;1.30;;;0.35;;
58240;SDS011;45058;55.772;38.224;2023-06-10T09:32:57;1.38;;;0.50;;
58240;SDS011;45058;55.772;38.224;2023-06-10T09:35:28;3.83;;;0.40;;
58240;SDS011;45058;55.772;38.224;2023-06-10T09:37:59;4.07;;;0.50;;
58240;SDS011;45058;55.772;38.224;2023-06-10T09:40:27;4.70;;;0.70;;
58240;SDS011;45058;55.772;38.224;2023-06-10T09:42:54;1.52;;;0.47;;
58240;SDS011;45058;55.772;38.224;2023-06-10T09:45:29;1.17;;;0.50;;
58240;SDS011;45058;55.772;38.224;2023-06-10T09:47:57;4.20;;;0.68;;
58240;SDS011;45058;55.772;38.224;2023-06-10T09:50:23;7.22;;;0.68;;
58240;SDS011;45058;55.772;38.224;2023-06-10T09:52:50;3.80;;;0.60;;
58240;SDS011;45058;55.772;38.224;2023-06-10T09:55:16;5.53;;;0.60;;
58240;SDS011;45058;55.772;38.224;2023-06-10T09:57:43;2.90;;;0.82;;
58240;SDS011;45058;55.772;38.224;2023-06-10T10:00:13;3.05;;;0.70;;
58240;SDS011;45058;55.772;38.224;2023-06-10T10:02:50;2.70;;;1.10;;
58240;SDS011;45058;55.772;38.224;2023-06-10T10:05:21;19.83;;;1.70;;
58240;SDS011;45058;55.772;38.224;2023-06-10T10:07:49;8.48;;;0.65;;
58240;SDS011;45058;55.772;38.224;2023-06-10T10:10:16;2.10;;;0.50;;
58240;SDS011;45058;55.772;38.224;2023-06-10T10:12:48;4.75;;;0.60;;
58240;SDS011;45058;55.772;38.224;2023-06-10T10:15:17;6.53;;;0.80;;
58240;SDS011;45058;55.772;38.224;2023-06-10T10:20:20;5.10;;;0.65;;
58240;SDS011;45058;55.772;38.224;2023-06-10T10:22:50;3.08;;;0.50;;
58240;SDS011;45058;55.772;38.224;2023-06-10T10:25:29;11.23;;;1.05;;
58240;SDS011;45058;55.772;38.224;2023-06-10T10:28:07;1.67;;;0.75;;
58240;SDS011;45058;55.772;38.224;2023-06-10T10:30:42;2.85;;;0.57;;
58240;SDS011;45058;55.772;38.224;2023-06-10T10:33:13;3.42;;;0.77;;
58240;SDS011;45058;55.772;38.224;2023-06-10T10:35:45;3.05;;;0.60;;
58240;SDS011;45058;55.772;38.224;2023-06-10T10:38:12;1.75;;;0.60;;
58240;SDS011;45058;55.772;38.224;2023-06-10T10:40:38;1.08;;;0.65;;
58240;SDS011;45058;55.772;38.224;2023-06-10T10:43:05;2.92;;;0.60;;
58240;SDS011;45058;55.772;38.224;2023-06-10T10:45:33;5.00;;;0.50;;
58240;SDS011;45058;55.772;38.224;2023-06-10T10:48:08;3.55;;;0.55;;
58240;SDS011;45058;55.772;38.224;2023-06-10T10:50:37;1.48;;;0.55;;
58240;SDS011;45058;55.772;38.224;2023-06-10T10:53:05;2.88;;;0.80;;
58240;SDS011;45058;55.772;38.224;2023-06-10T10:55:32;4.38;;;0.65;;
58240;SDS011;45058;55.772;38.224;2023-06-10T10:58:03;4.53;;;0.57;;
58240;SDS011;45058;55.772;38.224;2023-06-10T11:00:34;1.38;;;0.47;;
58240;SDS011;45058;55.772;38.224;2023-06-10T11:05:41;2.47;;;0.52;;
58240;SDS011;45058;55.772;38.224;2023-06-10T11:11:24;3.55;;;0.75;;
58240;SDS011;45058;55.772;38.224;2023-06-10T11:16:42;2.50;;;0.73;;
58240;SDS011;45058;55.772;38.224;2023-06-10T11:19:10;2.22;;;0.73;;
58240;SDS011;45058;55.772;38.224;2023-06-10T11:22:07;0.63;;;0.32;;
58240;SDS011;45058;55.772;38.224;2023-06-10T11:24:38;3.72;;;0.70;;
58240;SDS011;45058;55.772;38.224;2023-06-10T11:27:17;1.95;;;0.50;;
58240;SDS011;45058;55.772;38.224;2023-06-10T11:32:32;1.52;;;0.50;;
58240;SDS011;45058;55.772;38.224;2023-06-10T11:34:59;2.45;;;0.60;;
58240;SDS011;45058;55.772;38.224;2023-06-10T11:37:30;4.22;;;0.77;;
58240;SDS011;45058;55.772;38.224;2023-06-10T11:39:57;3.08;;;0.40;;
58240;SDS011;45058;55.772;38.224;2023-06-10T11:42:24;2.15;;;0.70;;
58240;SDS011;45058;55.772;38.224;2023-06-10T11:44:54;4.47;;;0.82;;
58240;SDS011;45058;55.772;38.224;2023-06-10T11:47:23;3.72;;;0.95;;
58240;SDS011;45058;55.772;38.224;2023-06-10T11:49:57;2.20;;;0.47;;
58240;SDS011;45058;55.772;38.224;2023-06-10T11:52:31;4.07;;;0.95;;
58240;SDS011;45058;55.772;38.224;2023-06-10T11:55:00;4.03;;;0.98;;
58240;SDS011;45058;55.772;38.224;2023-06-10T11:57:27;4.00;;;0.88;;
58240;SDS011;45058;55.772;38.224;2023-06-10T11:59:53;3.08;;;0.70;;
58240;SDS011;45058;55.772;38.224;2023-06-10T12:02:20;1.70;;;0.77;;
58240;SDS011;45058;55.772;38.224;2023-06-10T12:04:47;6.07;;;0.60;;
58240;SDS011;45058;55.772;38.224;2023-06-10T12:07:20;4.47;;;0.93;;
58240;SDS011;45058;55.772;38.224;2023-06-10T12:09:58;2.70;;;0.60;;
58240;SDS011;45058;55.772;38.224;2023-06-10T12:12:25;2.50;;;0.70;;
58240;SDS011;45058;55.772;38.224;2023-06-10T12:20:06;4.03;;;0.65;;
58240;SDS011;45058;55.772;38.224;2023-06-10T12:22:37;3.20;;;1.05;;
58240;SDS011;45058;55.772;38.224;2023-06-10T12:25:04;4.20;;;0.70;;
58240;SDS011;45058;55.772;38.224;2023-06-10T12:27:32;2.65;;;0.60;;
58240;SDS011;45058;55.772;38.224;2023-06-10T12:30:00;3.45;;;0.98;;
58240;SDS011;45058;55.772;38.224;2023-06-10T12:32:37;4.18;;;1.00;;
58240;SDS011;45058;55.772;38.224;2023-06-10T12:35:05;4.45;;;0.90;;
58240;SDS011;45058;55.772;38.224;2023-06-10T12:37:32;5.40;;;0.75;;
58240;SDS011;45058;55.772;38.224;2023-06-10T12:40:02;9.93;;;0.77;;
58240;SDS011;45058;55.772;38.224;2023-06-10T12:42:30;2.47;;;0.88;;
58240;SDS011;45058;55.772;38.224;2023-06-10T12:44:59;3.28;;;0.80;;
58240;SDS011;45058;55.772;38.224;2023-06-10T12:47:31;2.60;;;0.90;;
58240;SDS011;45058;55.772;38.224;2023-06-10T12:50:00;4.38;;;0.68;;
58240;SDS011;45058;55.772;38.224;2023-06-10T12:52:31;3.53;;;0.85;;
58240;SDS011;45058;55.772;38.224;2023-06-10T12:54:58;2.80;;;0.95;;
58240;SDS011;45058;55.772;38.224;2023-06-10T12:57:27;3.92;;;1.05;;
58240;SDS011;45058;55.772;38.224;2023-06-10T12:59:53;5.07;;;0.90;;
58240;SDS011;45058;55.772;38.224;2023-06-10T13:02:22;2.42;;;0.98;;
58240;SDS011;45058;55.772;38.224;2023-06-10T13:04:50;3.08;;;0.90;;
58240;SDS011;45058;55.772;38.224;2023-06-10T13:09:42;4.90;;;0.80;;
58240;SDS011;45058;55.772;38.224;2023-06-10T13:12:10;4.35;;;0.93;;
58240;SDS011;45058;55.772;38.224;2023-06-10T13:14:37;7.30;;;0.93;;
58240;SDS011;45058;55.772;38.224;2023-06-10T13:17:03;5.82;;;0.95;;
58240;SDS011;45058;55.772;38.224;2023-06-10T13:19:35;3.90;;;0.73;;
58240;SDS011;45058;55.772;38.224;2023-06-10T13:22:01;3.95;;;0.93;;
58240;SDS011;45058;55.772;38.224;2023-06-10T13:24:27;6.07;;;1.00;;
58240;SDS011;45058;55.772;38.224;2023-06-10T13:26:53;4.25;;;1.00;;
58240;SDS011;45058;55.772;38.224;2023-06-10T13:29:20;5.05;;;1.10;;
58240;SDS011;45058;55.772;38.224;2023-06-10T13:31:46;4.22;;;0.90;;
58240;SDS011;45058;55.772;38.224;2023-06-10T13:34:12;2.40;;;1.10;;
58240;SDS011;45058;55.772;38.224;2023-06-10T13:36:39;2.08;;;0.80;;
58240;SDS011;45058;55.772;38.224;2023-06-10T13:39:05;1.23;;;0.60;;
58240;SDS011;45058;55.772;38.224;2023-06-10T13:41:31;3.80;;;0.85;;
58240;SDS011;45058;55.772;38.224;2023-06-10T13:43:57;3.80;;;1.10;;
58240;SDS011;45058;55.772;38.224;2023-06-10T13:46:23;1.83;;;0.70;;
58240;SDS011;45058;55.772;38.224;2023-06-10T13:48:52;5.45;;;1.65;;
58240;SDS011;45058;55.772;38.224;2023-06-10T13:51:18;3.83;;;0.77;;
58240;SDS011;45058;55.772;38.224;2023-06-10T13:53:44;3.47;;;0.80;;
58240;SDS011;45058;55.772;38.224;2023-06-10T13:56:11;7.13;;;0.90;;
58240;SDS011;45058;55.772;38.224;2023-06-10T13:58:38;2.45;;;0.77;;
58240;SDS011;45058;55.772;38.224;2023-06-10T14:01:06;1.45;;;0.80;;
58240;SDS011;45058;55.772;38.224;2023-06-10T14:03:33;5.25;;;1.05;;
58240;SDS011;45058;55.772;38.224;2023-06-10T14:05:59;4.63;;;0.90;;
58240;SDS011;45058;55.772;38.224;2023-06-10T14:08:25;4.32;;;0.85;;
58240;SDS011;45058;55.772;38.224;2023-06-10T14:10:52;2.17;;;1.00;;
58240;SDS011;45058;55.772;38.224;2023-06-10T14:13:18;4.20;;;1.15;;
58240;SDS011;45058;55.772;38.224;2023-06-10T14:15:44;3.63;;;1.33;;
58240;SDS011;45058;55.772;38.224;2023-06-10T14:18:11;6.63;;;0.98;;
58240;SDS011;45058;55.772;38.224;2023-06-10T14:20:37;5.32;;;0.90;;
58240;SDS011;45058;55.772;38.224;2023-06-10T14:23:03;7.80;;;1.00;;
58240;SDS011;45058;55.772;38.224;2023-06-10T14:25:30;2.22;;;0.80;;
58240;SDS011;45058;55.772;38.224;2023-06-10T14:27:56;5.07;;;1.00;;
58240;SDS011;45058;55.772;38.224;2023-06-10T14:30:23;6.47;;;1.05;;
58240;SDS011;45058;55.772;38.224;2023-06-10T14:32:49;3.70;;;0.77;;
58240;SDS011;45058;55.772;38.224;2023-06-10T14:35:15;1.63;;;0.70;;
58240;SDS011;45058;55.772;38.224;2023-06-10T14:37:41;2.53;;;0.90;;
58240;SDS011;45058;55.772;38.224;2023-06-10T14:40:08;3.30;;;1.00;;
58240;SDS011;45058;55.772;38.224;2023-06-10T14:42:34;4.82;;;1.10;;
58240;SDS011;45058;55.772;38.224;2023-06-10T14:45:00;4.63;;;1.00;;
58240;SDS011;45058;55.772;38.224;2023-06-10T14:47:30;12.57;;;5.22;;
58240;SDS011;45058;55.772;38.224;2023-06-10T14:49:56;4.22;;;1.33;;
58240;SDS011;45058;55.772;38.224;2023-06-10T14:52:22;11.82;;;1.40;;
58240;SDS011;45058;55.772;38.224;2023-06-10T14:54:49;7.25;;;3.33;;
58240;SDS011;45058;55.772;38.224;2023-06-10T14:57:15;5.93;;;2.50;;
58240;SDS011;45058;55.772;38.224;2023-06-10T14:59:41;1.70;;;0.98;;
58240;SDS011;45058;55.772;38.224;2023-06-10T15:02:10;5.13;;;0.95;;
58240;SDS011;45058;55.772;38.224;2023-06-10T15:04:36;4.18;;;0.70;;
58240;SDS011;45058;55.772;38.224;2023-06-10T15:07:03;4.75;;;0.90;;
58240;SDS011;45058;55.772;38.224;2023-06-10T15:09:29;3.08;;;0.70;;
58240;SDS011;45058;55.772;38.224;2023-06-10T15:11:56;4.57;;;1.15;;
58240;SDS011;45058;55.772;38.224;2023-06-10T15:14:23;3.00;;;1.00;;
58240;SDS011;45058;55.772;38.224;2023-06-10T15:16:50;4.38;;;1.35;;
58240;SDS011;45058;55.772;38.224;2023-06-10T15:19:16;3.17;;;0.90;;
58240;SDS011;45058;55.772;38.224;2023-06-10T15:21:42;7.50;;;1.00;;
58240;SDS011;45058;55.772;38.224;2023-06-10T15:24:09;7.82;;;1.00;;
58240;SDS011;45058;55.772;38.224;2023-06-10T15:26:36;23.77;;;1.25;;
58240;SDS011;45058;55.772;38.224;2023-06-10T15:29:04;9.52;;;1.20;;
58240;SDS011;45058;55.772;38.224;2023-06-10T15:31:31;2.38;;;0.68;;
58240;SDS011;45058;55.772;38.224;2023-06-10T15:33:59;1.90;;;0.73;;
58240;SDS011;45058;55.772;38.224;2023-06-10T15:36:25;3.35;;;0.70;;
58240;SDS011;45058;55.772;38.224;2023-06-10T15:38:53;2.47;;;0.60;;
58240;SDS011;45058;55.772;38.224;2023-06-10T15:41:19;6.25;;;1.00;;
58240;SDS011;45058;55.772;38.224;2023-06-10T15:43:46;8.52;;;0.90;;
58240;SDS011;45058;55.772;38.224;2023-06-10T15:46:12;3.53;;;0.82;;
58240;SDS011;45058;55.772;38.224;2023-06-10T15:48:38;4.75;;;1.10;;
58240;SDS011;45058;55.772;38.224;2023-06-10T15:51:04;9.48;;;1.25;;
58240;SDS011;45058;55.772;38.224;2023-06-10T15:53:33;7.25;;;1.63;;
58240;SDS011;45058;55.772;38.224;2023-06-10T15:55:59;3.15;;;0.93;;
58240;SDS011;45058;55.772;38.224;2023-06-10T15:58:26;9.40;;;1.38;;
58240;SDS011;45058;55.772;38.224;2023-06-10T16:00:52;6.03;;;1.00;;
58240;SDS011;45058;55.772;38.224;2023-06-10T16:03:18;7.57;;;1.73;;
58240;SDS011;45058;55.772;38.224;2023-06-10T16:05:44;44.28;;;2.47;;
58240;SDS011;45058;55.772;38.224;2023-06-10T16:08:11;2.83;;;1.15;;
58240;SDS011;45058;55.772;38.224;2023-06-10T16:10:37;2.95;;;0.93;;
58240;SDS011;45058;55.772;38.224;2023-06-10T16:13:03;3.67;;;1.20;;
58240;SDS011;45058;55.772;38.224;2023-06-10T16:15:30;1.58;;;0.90;;
58240;SDS011;45058;55.772;38.224;2023-06-10T16:17:57;3.85;;;1.00;;
58240;SDS011;45058;55.772;38.224;2023-06-10T16:20:24;3.78;;;1.00;;
58240;SDS011;45058;55.772;38.224;2023-06-10T16:22:50;1.60;;;0.90;;
58240;SDS011;45058;55.772;38.224;2023-06-10T16:25:17;2.10;;;0.73;;
58240;SDS011;45058;55.772;38.224;2023-06-10T16:27:43;5.13;;;0.77;;
58240;SDS011;45058;55.772;38.224;2023-06-10T16:30:09;3.50;;;0.82;;
58240;SDS011;45058;55.772;38.224;2023-06-10T16:32:35;2.30;;;0.98;;
58240;SDS011;45058;55.772;38.224;2023-06-10T16:35:02;5.30;;;1.17;;
58240;SDS011;45058;55.772;38.224;2023-06-10T16:37:28;1.58;;;1.15;;
58240;SDS011;45058;55.772;38.224;2023-06-10T16:39:55;3.53;;;1.00;;
58240;SDS011;45058;55.772;38.224;2023-06-10T16:42:21;7.13;;;1.38;;
58240;SDS011;45058;55.772;38.224;2023-06-10T16:44:47;3.63;;;1.63;;
58240;SDS011;45058;55.772;38.224;2023-06-10T16:47:13;5.28;;;1.70;;
58240;SDS011;45058;55.772;38.224;2023-06-10T16:49:39;8.45;;;1.38;;
58240;SDS011;45058;55.772;38.224;2023-06-10T16:52:06;8.82;;;1.60;;
58240;SDS011;45058;55.772;38.224;2023-06-10T16:54:32;6.00;;;1.25;;
58240;SDS011;45058;55.772;38.224;2023-06-10T16:56:58;4.85;;;1.00;;
58240;SDS011;45058;55.772;38.224;2023-06-10T16:59:24;5.03;;;1.20;;
58240;SDS011;45058;55.772;38.224;2023-06-10T17:01:50;4.95;;;1.45;;
58240;SDS011;45058;55.772;38.224;2023-06-10T17:04:17;5.65;;;1.33;;
58240;SDS011;45058;55.772;38.224;2023-06-10T17:06:45;2.80;;;1.30;;
58240;SDS011;45058;55.772;38.224;2023-06-10T17:09:12;10.30;;;1.88;;
58240;SDS011;45058;55.772;38.224;2023-06-10T17:11:42;31.02;;;2.53;;
58240;SDS011;45058;55.772;38.224;2023-06-10T17:14:08;6.68;;;1.00;;
58240;SDS011;45058;55.772;38.224;2023-06-10T17:16:35;6.20;;;1.50;;
58240;SDS011;45058;55.772;38.224;2023-06-10T17:19:01;2.35;;;1.00;;
58240;SDS011;45058;55.772;38.224;2023-06-10T17:21:27;5.97;;;1.42;;
58240;SDS011;45058;55.772;38.224;2023-06-10T17:23:54;12.73;;;1.30;;
58240;SDS011;45058;55.772;38.224;2023-06-10T17:26:20;5.20;;;1.70;;
58240;SDS011;45058;55.772;38.224;2023-06-10T17:28:47;13.65;;;1.67;;
58240;SDS011;45058;55.772;38.224;2023-06-10T17:31:13;6.50;;;1.20;;
58240;SDS011;45058;55.772;38.224;2023-06-10T17:33:39;5.03;;;1.15;;
58240;SDS011;45058;55.772;38.224;2023-06-10T17:36:06;7.10;;;1.10;;
58240;SDS011;45058;55.772;38.224;2023-06-10T17:38:32;10.93;;;1.20;;
58240;SDS011;45058;55.772;38.224;2023-06-10T17:40:58;5.05;;;1.20;;
58240;SDS011;45058;55.772;38.224;2023-06-10T17:43:25;3.72;;;1.00;;
58240;SDS011;45058;55.772;38.224;2023-06-10T17:45:51;6.50;;;1.95;;
58240;SDS011;45058;55.772;38.224;2023-06-10T17:48:25;13.77;;;2.90;;
58240;SDS011;45058;55.772;38.224;2023-06-10T17:50:58;7.70;;;1.45;;
58240;SDS011;45058;55.772;38.224;2023-06-10T17:53:29;4.93;;;1.73;;
58240;SDS011;45058;55.772;38.224;2023-06-10T17:55:58;9.80;;;1.38;;
58240;SDS011;45058;55.772;38.224;2023-06-10T17:58:28;8.30;;;1.63;;
58240;SDS011;45058;55.772;38.224;2023-06-10T18:00:58;9.15;;;1.88;;
58240;SDS011;45058;55.772;38.224;2023-06-10T18:03:27;8.70;;;2.22;;
58240;SDS011;45058;55.772;38.224;2023-06-10T18:08:39;12.48;;;3.58;;
58240;SDS011;45058;55.772;38.224;2023-06-10T18:11:06;7.88;;;2.08;;
58240;SDS011;45058;55.772;38.224;2023-06-10T18:13:32;12.73;;;2.08;;